ASPEN61 KBAB-KBAB
Flight info
| Callsign | ASPEN61 |
|---|---|
| Flight time | 0h 7m |
| Altitude | 85000 |
| Route | PYE ALCOA ROSIN ALCOA PYE |
| Aircraft | SR71/M-VGD/C |
Departure
| Time | 2026-04-17 07:15 |
|---|---|
| Airport | Beale Air Force Base (KBAB) |
Arrival
| Time | 2026-04-17 07:23 |
|---|---|
| Airport | Beale Air Force Base (KBAB) |
| Time | Latitude | Longitude | Altitude | Speed | Heading |
|---|---|---|---|---|---|
| 2026-04-17 06:38 | 33.67168 | -122.73353 | 86741 ft | 2006 kts | 138° |
| 2026-04-17 06:39 | 33.56959 | -122.62267 | 86823 ft | 2008 kts | 136° |
| 2026-04-17 06:39 | 33.36736 | -122.38824 | 86840 ft | 2011 kts | 134° |
| 2026-04-17 06:40 | 33.17430 | -122.14900 | 86885 ft | 2012 kts | 133° |
| 2026-04-17 06:40 | 33.07897 | -122.02632 | 87038 ft | 2013 kts | 132° |
| 2026-04-17 06:40 | 32.98505 | -121.90296 | 86950 ft | 2014 kts | 132° |
| 2026-04-17 06:40 | 32.89155 | -121.77800 | 87054 ft | 2015 kts | 131° |
| 2026-04-17 06:41 | 32.79916 | -121.65268 | 86990 ft | 2016 kts | 131° |
| 2026-04-17 06:41 | 32.61634 | -121.40010 | 86956 ft | 2014 kts | 130° |
| 2026-04-17 06:42 | 32.43661 | -121.14702 | 86922 ft | 1992 kts | 130° |
| 2026-04-17 06:42 | 32.34952 | -121.02300 | 86708 ft | 1983 kts | 130° |
| 2026-04-17 06:42 | 32.26178 | -120.89728 | 86707 ft | 1976 kts | 129° |
| 2026-04-17 06:42 | 32.17454 | -120.77158 | 86519 ft | 1971 kts | 129° |
| 2026-04-17 06:43 | 32.08791 | -120.64617 | 86357 ft | 1967 kts | 129° |
| 2026-04-17 06:43 | 31.99992 | -120.52300 | 86177 ft | 1961 kts | 135° |
| 2026-04-17 06:43 | 31.90487 | -120.40799 | 86051 ft | 1955 kts | 140° |
| 2026-04-17 06:43 | 31.80312 | -120.30251 | 85875 ft | 1950 kts | 144° |
| 2026-04-17 06:44 | 31.69461 | -120.20643 | 85779 ft | 1945 kts | 148° |
| 2026-04-17 06:44 | 31.58236 | -120.12208 | 85540 ft | 1940 kts | 153° |
| 2026-04-17 06:44 | 31.46373 | -120.04730 | 85534 ft | 1935 kts | 157° |
| 2026-04-17 06:44 | 31.34066 | -119.98358 | 85414 ft | 1930 kts | 162° |
| 2026-04-17 06:45 | 31.21426 | -119.93140 | 85267 ft | 1925 kts | 166° |
| 2026-04-17 06:45 | 30.95360 | -119.86233 | 85124 ft | 1916 kts | 175° |
| 2026-04-17 06:46 | 30.68793 | -119.84129 | 85021 ft | 1909 kts | 184° |
| 2026-04-17 06:46 | 30.42342 | -119.86837 | 84985 ft | 1907 kts | 193° |
| 2026-04-17 06:47 | 30.16747 | -119.94203 | 84974 ft | 1903 kts | 202° |
| 2026-04-17 06:47 | 29.92335 | -120.06107 | 84967 ft | 1900 kts | 211° |
| 2026-04-17 06:48 | 29.69916 | -120.22161 | 85039 ft | 1899 kts | 220° |
| 2026-04-17 06:48 | 29.50065 | -120.41861 | 85105 ft | 1896 kts | 229° |
| 2026-04-17 06:49 | 29.33054 | -120.64923 | 85115 ft | 1894 kts | 237° |
| 2026-04-17 06:49 | 29.19419 | -120.90676 | 85173 ft | 1892 kts | 246° |
| 2026-04-17 06:50 | 29.09479 | -121.18513 | 85201 ft | 1890 kts | 255° |
| 2026-04-17 06:50 | 29.03482 | -121.47734 | 85268 ft | 1889 kts | 264° |
| 2026-04-17 06:51 | 29.01568 | -121.77657 | 85279 ft | 1889 kts | 273° |
| 2026-04-17 06:51 | 29.03784 | -122.07538 | 85353 ft | 1888 kts | 282° |
| 2026-04-17 06:52 | 29.10076 | -122.36661 | 85318 ft | 1888 kts | 291° |
| 2026-04-17 06:52 | 29.20210 | -122.64137 | 85330 ft | 1889 kts | 300° |
| 2026-04-17 06:53 | 29.34082 | -122.89689 | 85370 ft | 1890 kts | 309° |
| 2026-04-17 06:53 | 29.51278 | -123.12473 | 85527 ft | 1892 kts | 317° |
| 2026-04-17 06:53 | 29.60784 | -123.22450 | 85396 ft | 1893 kts | 322° |
| 2026-04-17 06:54 | 29.71182 | -123.31779 | 85556 ft | 1894 kts | 326° |
| 2026-04-17 06:54 | 29.93753 | -123.47535 | 85596 ft | 1897 kts | 335° |
| 2026-04-17 06:54 | 30.05617 | -123.53776 | 85727 ft | 1898 kts | 340° |
| 2026-04-17 06:55 | 30.18016 | -123.59071 | 85690 ft | 1899 kts | 343° |
| 2026-04-17 06:55 | 30.43565 | -123.67143 | 85656 ft | 1904 kts | 349° |
| 2026-04-17 06:56 | 30.69750 | -123.72465 | 85769 ft | 1908 kts | 353° |
| 2026-04-17 06:56 | 30.96196 | -123.75715 | 85815 ft | 1911 kts | 355° |
| 2026-04-17 06:57 | 31.22757 | -123.77493 | 85754 ft | 1912 kts | 358° |
| 2026-04-17 06:57 | 31.49370 | -123.78214 | 85797 ft | 1912 kts | 359° |
| 2026-04-17 06:58 | 31.75811 | -123.78172 | 85819 ft | 1912 kts | 0° |
| 2026-04-17 06:58 | 32.02413 | -123.77576 | 85862 ft | 1912 kts | 1° |
| 2026-04-17 06:59 | 32.29024 | -123.76569 | 85991 ft | 1913 kts | 1° |
| 2026-04-17 06:59 | 32.55654 | -123.75257 | 86043 ft | 1913 kts | 2° |
| 2026-04-17 07:00 | 32.82254 | -123.73719 | 86095 ft | 1913 kts | 2° |
| 2026-04-17 07:00 | 33.08850 | -123.72019 | 86179 ft | 1911 kts | 1° |
| 2026-04-17 07:01 | 33.35408 | -123.70822 | 86206 ft | 1909 kts | 0° |
| 2026-04-17 07:01 | 33.61838 | -123.70305 | 86169 ft | 1908 kts | 359° |
| 2026-04-17 07:02 | 33.88389 | -123.70255 | 86311 ft | 1908 kts | 359° |
| 2026-04-17 07:02 | 34.14983 | -123.70534 | 86359 ft | 1908 kts | 358° |
| 2026-04-17 07:03 | 34.41556 | -123.71038 | 86445 ft | 1908 kts | 358° |
| 2026-04-17 07:03 | 34.68101 | -123.71694 | 86511 ft | 1907 kts | 358° |
| 2026-04-17 07:04 | 34.94679 | -123.72451 | 86696 ft | 1907 kts | 358° |
| 2026-04-17 07:04 | 35.21241 | -123.73271 | 86795 ft | 1906 kts | 358° |
| 2026-04-17 07:05 | 35.47575 | -123.74118 | 86889 ft | 1905 kts | 358° |
| 2026-04-17 07:05 | 35.74046 | -123.75841 | 86842 ft | 1899 kts | 351° |
| 2026-04-17 07:06 | 36.00061 | -123.81313 | 87002 ft | 1895 kts | 345° |
| 2026-04-17 07:06 | 36.25579 | -123.89628 | 87141 ft | 1894 kts | 341° |
| 2026-04-17 07:06 | 36.38170 | -123.94564 | 87301 ft | 1893 kts | 340° |
| 2026-04-17 07:07 | 36.50633 | -123.99883 | 87242 ft | 1893 kts | 342° |
| 2026-04-17 07:07 | 36.75586 | -124.08156 | 87339 ft | 1893 kts | 351° |
| 2026-04-17 07:08 | 37.01816 | -124.11573 | 87463 ft | 1895 kts | 0° |
| 2026-04-17 07:08 | 37.28140 | -124.09820 | 87469 ft | 1898 kts | 9° |
| 2026-04-17 07:09 | 37.53995 | -124.02901 | 87516 ft | 1902 kts | 18° |
| 2026-04-17 07:09 | 37.78744 | -123.90972 | 87707 ft | 1907 kts | 26° |
| 2026-04-17 07:10 | 38.02042 | -123.75123 | 87782 ft | 1913 kts | 31° |
| 2026-04-17 07:10 | 38.24361 | -123.56508 | 87819 ft | 1919 kts | 35° |
| 2026-04-17 07:10 | 38.35160 | -123.46490 | 88037 ft | 1922 kts | 37° |
| 2026-04-17 07:11 | 38.45815 | -123.36051 | 88026 ft | 1924 kts | 38° |
| 2026-04-17 07:11 | 38.56268 | -123.25331 | 88133 ft | 1926 kts | 39° |
| 2026-04-17 07:11 | 38.66568 | -123.14355 | 88356 ft | 1928 kts | 40° |
| 2026-04-17 07:12 | 38.86645 | -122.91865 | 88268 ft | 1920 kts | 42° |
| 2026-04-17 07:12 | 38.96425 | -122.80379 | 87674 ft | 1890 kts | 42° |
| 2026-04-17 07:12 | 39.06050 | -122.69038 | 86769 ft | 1863 kts | 42° |
| 2026-04-17 07:12 | 39.15463 | -122.57742 | 85793 ft | 1840 kts | 42° |
| 2026-04-17 07:13 | 39.24545 | -122.46193 | 83760 ft | 1826 kts | 48° |
| 2026-04-17 07:13 | 39.32982 | -122.34023 | 80979 ft | 1799 kts | 48° |
| 2026-04-17 07:13 | 39.41035 | -122.22086 | 78742 ft | 1721 kts | 47° |
| 2026-04-17 07:13 | 39.48447 | -122.10442 | 76415 ft | 1633 kts | 54° |
| 2026-04-17 07:14 | 39.52755 | -122.02426 | 74180 ft | 1574 kts | 61° |
| 2026-04-17 07:14 | 39.57438 | -121.90276 | 68843 ft | 1488 kts | 73° |
| 2026-04-17 07:14 | 39.59831 | -121.77663 | 63513 ft | 1400 kts | 85° |
| 2026-04-17 07:14 | 39.60085 | -121.65512 | 59569 ft | 1300 kts | 96° |
| 2026-04-17 07:15 | 39.58563 | -121.54448 | 56220 ft | 1195 kts | 110° |
| 2026-04-17 07:15 | 39.55378 | -121.44997 | 53252 ft | 1097 kts | 123° |
| 2026-04-17 07:15 | 39.51021 | -121.37412 | 50159 ft | 1009 kts | 137° |
| 2026-04-17 07:15 | 39.45818 | -121.31934 | 47284 ft | 926 kts | 151° |
| 2026-04-17 07:16 | 39.40312 | -121.28274 | 44694 ft | 854 kts | 158° |
| 2026-04-17 07:16 | 39.35028 | -121.25572 | 43359 ft | 779 kts | 162° |
| 2026-04-17 07:16 | 39.30081 | -121.23318 | 41540 ft | 728 kts | 163° |
| 2026-04-17 07:16 | 39.25376 | -121.21286 | 38823 ft | 699 kts | 164° |
| 2026-04-17 07:17 | 39.20867 | -121.19403 | 35606 ft | 679 kts | 165° |
| 2026-04-17 07:17 | 39.16502 | -121.17615 | 33989 ft | 633 kts | 165° |
| 2026-04-17 07:17 | 39.08618 | -121.14432 | 31605 ft | 558 kts | 165° |
| 2026-04-17 07:18 | 39.05027 | -121.12989 | 30918 ft | 524 kts | 165° |
| 2026-04-17 07:18 | 39.01557 | -121.11723 | 28875 ft | 510 kts | 177° |
| 2026-04-17 07:18 | 38.98080 | -121.12035 | 25980 ft | 501 kts | 210° |
| 2026-04-17 07:18 | 38.95406 | -121.14494 | 24410 ft | 457 kts | 236° |
| 2026-04-17 07:19 | 38.93911 | -121.17887 | 22456 ft | 435 kts | 254° |
| 2026-04-17 07:19 | 38.92905 | -121.21439 | 21260 ft | 410 kts | 257° |
| 2026-04-17 07:19 | 38.92407 | -121.24884 | 19747 ft | 380 kts | 275° |
| 2026-04-17 07:19 | 38.92801 | -121.28227 | 16756 ft | 385 kts | 294° |
| 2026-04-17 07:20 | 38.94082 | -121.31355 | 13610 ft | 403 kts | 307° |
| 2026-04-17 07:20 | 38.95956 | -121.34024 | 10910 ft | 396 kts | 324° |
| 2026-04-17 07:20 | 38.98223 | -121.36078 | 8457 ft | 397 kts | 325° |
| 2026-04-17 07:20 | 39.00579 | -121.37281 | 6522 ft | 364 kts | 8° |
| 2026-04-17 07:21 | 39.02471 | -121.38638 | 5979 ft | 309 kts | 309° |
| 2026-04-17 07:21 | 39.04146 | -121.39766 | 4653 ft | 269 kts | 6° |
| 2026-04-17 07:21 | 39.06040 | -121.39737 | 3065 ft | 268 kts | 332° |
| 2026-04-17 07:21 | 39.07285 | -121.41269 | 2123 ft | 224 kts | 349° |
| 2026-04-17 07:22 | 39.08754 | -121.41626 | 1266 ft | 202 kts | 349° |
| 2026-04-17 07:22 | 39.10021 | -121.42099 | 871 ft | 180 kts | 342° |
| 2026-04-17 07:22 | 39.11172 | -121.42599 | 474 ft | 174 kts | 343° |
| 2026-04-17 07:22 | 39.12284 | -121.43087 | 111 ft | 160 kts | 343° |
| 2026-04-17 07:23 | 39.13220 | -121.43497 | 112 ft | 95 kts | 341° |
| 2026-04-17 07:23 | 39.13635 | -121.43667 | 111 ft | 51 kts | 342° |
| 2026-04-17 07:23 | 39.13789 | -121.43730 | 114 ft | 10 kts | 342° |
| 2026-04-17 07:23 | 39.13834 | -121.43748 | 112 ft | 3 kts | 342° |
| 2026-04-17 07:24 | 39.13838 | -121.43750 | 114 ft | 0 kts | 342° |
| 2026-04-17 07:24 | 39.13842 | -121.43751 | 114 ft | 0 kts | 342° |
| 2026-04-17 07:24 | 39.13879 | -121.43768 | 112 ft | 17 kts | 339° |
| 2026-04-17 07:24 | 39.14002 | -121.43755 | 113 ft | 16 kts | 50° |
| 2026-04-17 07:25 | 39.14040 | -121.43661 | 112 ft | 8 kts | 69° |
| 2026-04-17 07:25 | 39.14054 | -121.43615 | 111 ft | 3 kts | 70° |
| 2026-04-17 07:25 | 39.14055 | -121.43610 | 112 ft | 0 kts | 69° |
| 2026-04-17 07:25 | 39.14101 | -121.43452 | 112 ft | 27 kts | 68° |
| 2026-04-17 07:26 | 39.14196 | -121.43386 | 113 ft | 11 kts | 353° |
| 2026-04-17 07:26 | 39.14246 | -121.43398 | 113 ft | 4 kts | 343° |
| 2026-04-17 07:26 | 39.14254 | -121.43402 | 113 ft | 7 kts | 343° |
| 2026-04-17 07:26 | 39.14399 | -121.43464 | 113 ft | 22 kts | 341° |
| 2026-04-17 07:27 | 39.14516 | -121.43513 | 113 ft | 14 kts | 342° |
| 2026-04-17 07:27 | 39.14582 | -121.43543 | 112 ft | 6 kts | 347° |
| 2026-04-17 07:27 | 39.14618 | -121.43523 | 113 ft | 14 kts | 51° |
| 2026-04-17 07:27 | 39.14641 | -121.43439 | 112 ft | 0 kts | 73° |
| 2026-04-17 07:28 | 39.14668 | -121.43323 | 112 ft | 21 kts | 81° |
| 2026-04-17 07:28 | 39.14640 | -121.43283 | 112 ft | 2 kts | 156° |
| 2026-04-17 07:28 | 39.14607 | -121.43267 | 113 ft | 9 kts | 159° |
| 2026-04-17 07:29 | 39.14543 | -121.43236 | 113 ft | 8 kts | 160° |
| 2026-04-17 07:29 | 39.14511 | -121.43223 | 113 ft | 3 kts | 180° |
| 2026-04-17 07:29 | 39.14494 | -121.43238 | 111 ft | 0 kts | 248° |